• Join FlightAware (Why Join?)
  • Login
  • US Flag 
08:04AM EST


 

Airport Tracker/Info


-or-


 

Live Flight TrackerFlight Track Log ✈ RPA3321 ✈ 10-May-2013 ✈ KALB - KDCA

Flight Track Log - Related Links

Times and Time Zones

All times are in EDT time to prevent confusion due to time zone crossing. See the RPA3321 flight status page for this flight to view local times or setup timezone preferences in your user account.

Time Position Orientation Groundspeed Altitude Reporting Facility
EDT Latitude Longitude Course Direction KTS MPH feet Rate Location/Type
05:39AM 42.7714 -73.8092 180° South 148 170 1,800  Level Boston Center
05:40AM 42.8169 -73.8497 327° Northwest 215 247 3,800 2,340 Climbing Boston Center
05:41AM 42.5153 -74.0095 171° South  Level Estimated
05:41AM 42.8722 -73.9244 315° West 277 319 7,100  Level Boston Center
05:42AM 42.4373 -74.0783 180° South  Level Estimated
05:42AM 42.9147 -74.0050 306° West 282 325 9,900  Level Boston Center
05:43AM 42.3593 -74.1470 170° South  Level Estimated
05:43AM 42.9111 -74.1211 268° West 277 319 12,500  Level Boston Center
05:44AM 42.2812 -74.2155 180° South  Level Estimated
05:44AM 42.9114 -74.2344 270° West 306 352 14,700  Level Boston Center
05:45AM 42.8889 -74.3472 255° West 312 359 18,000 2,040 Climbing Boston Center
05:46AM 42.8158 -74.3506 182° South 252 290 18,800 1,380 Climbing Boston Center
05:47AM 42.7067 -74.2739 153° Southeast 268 308 20,800 1,860 Climbing Boston Center
05:48AM 42.6056 -74.2031 153° Southeast 352 405 22,600 1,680 Climbing Boston Center
05:49AM 42.5067 -74.1269 150° Southeast 371 427 24,200 1,380 Climbing Boston Center
05:50AM 42.4036 -74.0539 152° Southeast 394 453 25,400 1,200 Climbing Boston Center
05:51AM 42.2983 -73.9783 152° Southeast 418 481 26,700 1,260 Climbing Boston Center
05:52AM 42.1844 -73.9194 159° South 429 494 28,000 600 Climbing Boston Center
05:53AM 42.0575 -73.9025 174° South 441 507 28,000  Level Boston Center
05:54AM 41.9367 -73.8886 175° South 441 507 28,000  Level Boston Center
05:55AM 41.7406 -73.9069 184° South 417 480 28,000  Level New York Center
05:56AM 41.6286 -73.9683 202° Southwest 426 490 28,000  Level New York Center
05:57AM 41.5250 -74.0269 203° Southwest 420 483 28,000  Level New York Center
05:58AM 41.4306 -74.1219 217° Southwest 418 481 28,000  Level New York Center
05:59AM 41.3403 -74.2197 219° Southwest 424 488 28,000  Level New York Center
06:00AM 41.2483 -74.3058 215° Southwest 424 488 28,000  Level New York Center
06:01AM 41.1578 -74.4031 219° Southwest 419 482 28,000  Level New York Center
06:02AM 41.0717 -74.4947 219° Southwest 419 482 28,000  Level New York Center
06:03AM 40.9833 -74.5861 218° Southwest 413 475 28,000  Level New York Center
06:04AM 40.8950 -74.6772 218° Southwest 413 475 28,000  Level New York Center
06:05AM 40.8064 -74.7708 219° Southwest 413 475 28,000  Level New York Center
06:06AM 40.7178 -74.8617 218° Southwest 408 470 28,000  Level New York Center
06:07AM 40.6314 -74.9522 219° Southwest 408 470 28,000  Level New York Center
06:08AM 40.5428 -75.0422 218° Southwest 408 470 28,000  Level New York Center
06:09AM 40.4517 -75.1347 218° Southwest 413 475 28,000 -420 Level New York Center
06:10AM 40.3628 -75.2272 218° Southwest 413 475 27,200 -1,440 Descending New York Center
06:11AM 40.2761 -75.3169 218° Southwest 408 470 25,100 -2,100 Descending New York Center
06:12AM 40.1917 -75.3983 216° Southwest 403 464 23,100 -2,040 Descending New York Center
06:13AM 40.1111 -75.4825 219° Southwest 387 445 21,100 -1,560 Descending New York Center
06:14AM 40.0308 -75.5611 217° Southwest 374 430 20,000 -1,080 Descending New York Center
06:15AM 39.9503 -75.6422 218° Southwest 364 419 19,000 -1,200 Descending New York Center
06:16AM 39.8861 -75.7325 227° Southwest 356 410 17,700 -1,500 Descending New York Center
06:17AM 39.8339 -75.8317 236° Southwest 340 391 16,100 -900 Descending New York Center
06:18AM 39.7817 -75.9331 236° Southwest 340 391 16,000 -300 Descending New York Center
06:20AM 39.7000 -76.1000 238° Southwest 328 377 15,400 -660 Descending Potomac TRACON
06:21AM 39.6500 -76.1833 232° Southwest 326 375 14,400 -1,200 Descending Potomac TRACON
06:22AM 39.6000 -76.2833 237° Southwest 326 375 13,200 -960 Descending Potomac TRACON
06:23AM 39.5500 -76.3833 237° Southwest 318 366 12,500 -660 Descending Potomac TRACON
06:24AM 39.5000 -76.4667 232° Southwest 313 360 12,000 -300 Descending Potomac TRACON
06:25AM 39.4333 -76.5167 210° Southwest 315 362 12,000  Level Potomac TRACON
06:26AM 39.3500 -76.5667 205° Southwest 321 369 12,000  Level Potomac TRACON
06:27AM 39.2833 -76.6000 201° Southwest 321 369 12,000 -840 Level Potomac TRACON
06:28AM 39.2000 -76.6500 205° Southwest 312 359 10,400 -1,080 Descending Potomac TRACON
06:29AM 39.1333 -76.7000 210° Southwest 289 333 10,000 -720 Descending Potomac TRACON
06:30AM 39.0833 -76.7667 226° Southwest 286 329 9,100 -1,380 Descending Potomac TRACON
06:31AM 39.0167 -76.8333 218° Southwest 282 325 7,400 -1,680 Descending Potomac TRACON
06:32AM 38.9667 -76.9000 226° Southwest 271 312 6,000 -720 Descending Potomac TRACON
06:33AM 38.9000 -76.9500 210° Southwest 283 326 6,000 -120 Level Potomac TRACON
06:34AM 38.8333 -76.9500 180° South 266 306 5,800 -600 Descending Potomac TRACON
06:35AM 38.7667 -76.9500 180° South 233 268 4,800 -1,020 Descending Potomac TRACON
06:36AM 38.7167 -76.9667 195° South 216 249 3,900 -1,140 Descending Potomac TRACON
06:37AM 38.7333 -77.0167 293° West 178 205 2,700 -1,320 Descending Potomac TRACON
06:37AM 38.7833 -77.0333 345° North 171 197 1,500 -1,380 Descending Potomac TRACON